Time;durP1;ratioP1;P1;durP2;ratioP2;P2;SDS_P1;SDS_P2;PMS_P1;PMS_P2;Temp;Humidity;BMP_temperature;BMP_pressure;BME280_temperature;BME280_humidity;BME280_pressure;Samples;Min_cycle;Max_cycle;Signal;HPM_P1;HPM_P2
2022/01/20 00:01:11;;;;;;;;;54.75;44.50;;;;;7.07;89.01;102366.94;5000254;28;45293;-76
2022/01/20 00:03:40;;;;;;;;;49.75;42.50;;;;;7.08;89.46;102365.97;4999935;28;45635;-77
2022/01/20 00:28:02;;;;;;;;;40.75;35.75;;;;;6.72;89.14;102360.56;4979760;28;45333;-77
2022/01/20 00:30:39;;;;;;;;;45.50;38.50;;;;;6.72;88.70;102368.50;4979777;28;45165;-77
2022/01/20 00:38:22;;;;;;;;;40.50;33.00;;;;;6.62;88.90;102349.81;4979349;28;45916;-77
2022/01/20 00:40:47;;;;;;;;;37.50;34.75;;;;;6.65;88.64;102356.69;4979800;28;45350;-76
2022/01/20 00:43:13;;;;;;;;;35.25;33.00;;;;;6.62;88.81;102370.94;4979986;28;45141;-77
2022/01/20 00:45:38;;;;;;;;;30.50;29.25;;;;;6.54;88.27;102354.78;4979797;28;45396;-77
2022/01/20 00:48:04;;;;;;;;;37.75;33.50;;;;;6.56;88.13;102366.09;4979893;28;45277;-77
2022/01/20 00:50:29;;;;;;;;;31.75;30.50;;;;;6.42;87.90;102352.06;4962190;28;45853;-77
2022/01/20 00:52:55;;;;;;;;;37.75;33.00;;;;;6.44;87.68;102373.09;4979723;28;45473;-77
2022/01/20 00:55:20;;;;;;;;;31.75;28.75;;;;;6.29;87.09;102369.69;4979569;28;45488;-77
2022/01/20 00:57:46;;;;;;;;;33.75;27.25;;;;;6.23;87.14;102373.63;4979526;28;45157;-77
2022/01/20 01:00:13;;;;;;;;;31.75;29.25;;;;;6.10;86.97;102365.66;4979518;28;45447;-77
2022/01/20 01:02:39;;;;;;;;;35.50;30.25;;;;;6.00;86.83;102375.13;4979595;28;45307;-77
2022/01/20 01:05:06;;;;;;;;;29.50;26.50;;;;;5.84;87.00;102365.63;4978074;28;47176;-77
2022/01/20 01:07:45;;;;;;;;;32.50;30.00;;;;;5.69;87.02;102362.22;4981883;28;45317;-77
2022/01/20 01:10:13;;;;;;;;;29.50;28.00;;;;;5.61;86.82;102365.34;4982843;28;45243;-77
2022/01/20 01:12:55;;;;;;;;;29.75;28.75;;;;;5.53;87.31;102367.63;4982996;28;45373;-76
2022/01/20 01:15:26;;;;;;;;;28.25;24.50;;;;;5.44;87.28;102371.72;4982879;28;45315;-77
2022/01/20 01:23:22;;;;;;;;;28.50;25.50;;;;;5.13;87.20;102356.09;5002132;28;45430;-76
2022/01/20 01:25:48;;;;;;;;;31.75;27.50;;;;;5.15;87.22;102380.56;5002179;28;45309;-76
2022/01/20 01:28:13;;;;;;;;;29.25;28.75;;;;;5.01;87.36;102367.41;5002143;28;46096;-76
2022/01/20 01:33:22;;;;;;;;;26.00;23.00;;;;;4.94;87.42;102390.69;5002381;28;45404;-76
2022/01/20 01:35:55;;;;;;;;;24.25;23.75;;;;;4.82;87.47;102376.47;5002216;28;45514;-77
2022/01/20 01:38:35;;;;;;;;;36.50;29.00;;;;;4.86;87.28;102401.72;4984116;28;48168;-77
2022/01/20 01:41:01;;;;;;;;;28.00;26.75;;;;;4.81;87.55;102409.03;5002060;28;45211;-77
2022/01/20 01:43:27;;;;;;;;;31.25;28.00;;;;;4.73;87.77;102398.97;4984347;28;45349;-76
2022/01/20 01:45:52;;;;;;;;;29.25;29.25;;;;;4.66;87.51;102392.38;5001957;28;45282;-77
2022/01/20 01:48:18;;;;;;;;;32.25;28.50;;;;;4.64;87.59;102400.38;5002085;28;45301;-77
2022/01/20 01:50:43;;;;;;;;;30.75;29.75;;;;;4.54;87.69;102402.75;5002024;28;45310;-77
2022/01/20 01:53:09;;;;;;;;;29.25;28.50;;;;;4.55;87.77;102407.06;5001934;28;45357;-77
2022/01/20 01:55:36;;;;;;;;;30.75;25.75;;;;;4.56;87.88;102418.47;5001624;28;45276;-76
2022/01/20 01:58:01;;;;;;;;;30.00;29.75;;;;;4.55;87.97;102427.31;5001891;28;46586;-76
2022/01/20 02:00:30;;;;;;;;;29.50;26.00;;;;;4.54;88.26;102434.34;5001863;28;45303;-77
2022/01/20 02:02:56;;;;;;;;;28.25;26.50;;;;;4.44;88.19;102422.69;5017196;28;45289;-77
2022/01/20 02:05:22;;;;;;;;;35.50;33.75;;;;;4.47;89.26;102437.44;5001630;28;45340;-77
2022/01/20 02:18:44;;;;;;;;;34.25;31.25;;;;;4.56;88.45;102436.88;5000879;28;45270;-76
2022/01/20 02:21:10;;;;;;;;;28.75;25.75;;;;;4.61;88.28;102455.06;4983640;28;45296;-76
2022/01/20 02:23:35;;;;;;;;;30.25;28.75;;;;;4.49;87.84;102439.03;5001333;28;45171;-77
2022/01/20 02:26:01;;;;;;;;;24.75;23.25;;;;;4.47;87.43;102448.81;5001356;28;45219;-76
2022/01/20 02:28:29;;;;;;;;;30.75;27.00;;;;;4.33;87.62;102435.63;5001213;28;45936;-77
2022/01/20 02:30:55;;;;;;;;;22.00;19.00;;;;;4.29;87.65;102429.69;5001405;28;45350;-76
2022/01/20 02:33:23;;;;;;;;;32.25;28.00;;;;;4.21;87.50;102438.03;5001478;28;45326;-76
2022/01/20 02:35:52;;;;;;;;;29.00;26.00;;;;;4.24;87.36;102447.53;5001338;28;45294;-76
2022/01/20 02:38:26;;;;;;;;;24.50;24.50;;;;;4.17;87.36;102458.41;5000879;28;45980;-76
2022/01/20 02:46:19;;;;;;;;;28.00;26.75;;;;;4.04;87.87;102452.19;5000877;28;45214;-76
2022/01/20 02:48:44;;;;;;;;;24.75;21.75;;;;;3.91;87.81;102439.75;5001020;28;45368;-76
2022/01/20 02:51:10;;;;;;;;;23.50;21.75;;;;;3.97;87.35;102442.94;5001176;28;45274;-76
2022/01/20 02:53:35;;;;;;;;;27.25;24.75;;;;;3.87;87.96;102434.75;5001029;28;45214;-77
2022/01/20 02:56:00;;;;;;;;;27.00;21.00;;;;;3.83;87.52;102435.88;5000963;28;45199;-76
2022/01/20 02:58:26;;;;;;;;;22.00;20.75;;;;;3.83;87.20;102444.59;4983028;28;46973;-76
2022/01/20 03:00:52;;;;;;;;;24.25;20.25;;;;;3.79;87.28;102445.69;5000899;28;45382;-76
2022/01/20 03:03:17;;;;;;;;;16.00;15.00;;;;;3.68;87.99;102435.78;5001103;28;45351;-76
2022/01/20 03:05:43;;;;;;;;;21.25;19.25;;;;;3.69;87.92;102448.03;5000689;28;45290;-76
2022/01/20 03:08:08;;;;;;;;;25.50;22.00;;;;;3.63;87.08;102446.59;5000408;28;45315;-76
2022/01/20 03:10:33;;;;;;;;;25.75;22.75;;;;;3.57;87.37;102441.66;4982828;28;45290;-77
2022/01/20 03:12:59;;;;;;;;;27.75;21.50;;;;;3.51;87.95;102442.84;5000927;28;45572;-76
2022/01/20 03:15:24;;;;;;;;;21.25;20.00;;;;;3.45;87.77;102443.19;5000692;28;45424;-76
2022/01/20 03:17:50;;;;;;;;;19.00;16.25;;;;;3.43;87.72;102442.44;5000464;28;45342;-76
2022/01/20 03:20:15;;;;;;;;;18.00;17.25;;;;;3.40;88.25;102443.44;5000761;28;45286;-76
2022/01/20 03:22:40;;;;;;;;;17.67;16.67;;;;;3.49;87.46;102454.38;5000571;28;45499;-76
2022/01/20 03:25:06;;;;;;;;;16.67;16.00;;;;;3.46;87.40;102472.94;4982564;28;46022;-76
2022/01/20 03:27:31;;;;;;;;;16.00;15.67;;;;;3.36;87.25;102472.63;4982712;28;47677;-76
2022/01/20 03:29:57;;;;;;;;;17.33;17.33;;;;;3.32;88.23;102476.34;4999730;28;45233;-76
2022/01/20 03:32:22;;;;;;;;;15.33;14.00;;;;;3.33;87.48;102486.78;5000686;28;45247;-76
2022/01/20 03:34:47;;;;;;;;;21.50;18.50;;;;;3.25;88.05;102474.06;5000416;28;45436;-76
2022/01/20 03:37:13;;;;;;;;;16.67;14.00;;;;;3.25;87.75;102481.94;5000169;28;45353;-76
2022/01/20 03:39:39;;;;;;;;;16.50;15.00;;;;;3.20;87.38;102469.97;5015305;28;45404;-76
2022/01/20 03:42:04;;;;;;;;;14.67;12.67;;;;;3.18;87.74;102477.09;5000490;28;45449;-76
2022/01/20 03:44:29;;;;;;;;;17.00;15.00;;;;;3.20;87.52;102491.84;5000305;28;45223;-76
2022/01/20 03:46:57;;;;;;;;;14.33;14.00;;;;;3.08;87.78;102472.31;5000152;28;45313;-76
2022/01/20 03:49:33;;;;;;;;;10.00;10.00;;;;;3.11;87.59;102480.03;5000323;28;45321;-76
2022/01/20 03:51:58;;;;;;;;;15.00;13.67;;;;;3.04;87.35;102483.94;5000168;28;45333;-77
2022/01/20 03:54:23;;;;;;;;;16.50;15.00;;;;;3.00;88.15;102485.03;4999859;28;45550;-76
2022/01/20 03:56:49;;;;;;;;;14.75;14.75;;;;;2.94;88.23;102478.31;4982236;28;46970;-76
2022/01/20 03:59:14;;;;;;;;;18.50;17.25;;;;;2.87;87.78;102469.03;4999986;28;45408;-76
2022/01/20 04:01:39;;;;;;;;;17.25;15.75;;;;;2.87;87.25;102477.78;5000212;28;45285;-77
2022/01/20 04:04:05;;;;;;;;;11.50;11.50;;;;;2.80;88.62;102468.53;5000056;28;45333;-76
2022/01/20 04:06:30;;;;;;;;;12.00;12.00;;;;;2.88;88.44;102491.78;4999749;28;45351;-75
2022/01/20 04:08:56;;;;;;;;;19.50;15.75;;;;;2.85;88.30;102495.41;4999930;28;45430;-76
2022/01/20 04:11:25;;;;;;;;;17.75;17.25;;;;;2.83;88.28;102504.28;4999930;28;45294;-76
2022/01/20 04:13:51;;;;;;;;;13.00;13.00;;;;;2.89;87.76;102523.22;5000049;28;45302;-77
2022/01/20 04:16:32;;;;;;;;;14.50;13.00;;;;;2.86;88.04;102514.63;4999789;28;45418;-76
2022/01/20 04:18:59;;;;;;;;;18.00;17.00;;;;;2.74;88.26;102505.59;4996264;28;45468;-77
2022/01/20 04:21:29;;;;;;;;;13.75;13.75;;;;;2.81;87.80;102522.75;4999901;28;45276;-76
2022/01/20 04:23:57;;;;;;;;;16.25;13.75;;;;;2.80;88.86;102526.31;4999769;28;45316;-76
2022/01/20 04:26:23;;;;;;;;;13.00;12.33;;;;;2.77;87.82;102526.47;4981832;28;47261;-76
2022/01/20 04:28:55;;;;;;;;;11.00;11.00;;;;;2.70;88.35;102520.69;4999586;28;45270;-76
2022/01/20 04:31:22;;;;;;;;;17.00;14.25;;;;;2.63;88.04;102500.91;4999880;28;45345;-76
2022/01/20 04:33:48;;;;;;;;;13.67;13.67;;;;;2.72;87.74;102524.06;4999614;28;45630;-76
2022/01/20 04:36:13;;;;;;;;;10.25;10.25;;;;;2.69;87.71;102518.16;4981895;28;47272;-77
2022/01/20 04:38:39;;;;;;;;;17.50;17.25;;;;;2.63;87.67;102512.25;4999399;28;45307;-77
2022/01/20 04:41:05;;;;;;;;;13.50;13.25;;;;;2.69;87.54;102529.47;5001943;28;45229;-76
2022/01/20 04:43:30;;;;;;;;;18.25;14.00;;;;;2.64;88.50;102518.38;5003149;28;45456;-76
2022/01/20 04:46:07;;;;;;;;;16.25;13.00;;;;;2.67;88.38;102526.09;5003065;28;45256;-77
2022/01/20 04:59:23;;;;;;;;;10.50;7.50;;;;;2.51;88.25;102524.22;5002716;28;45318;-76
2022/01/20 05:01:48;;;;;;;;;9.00;9.00;;;;;2.62;87.82;102539.44;5002820;28;45324;-76
2022/01/20 05:04:14;;;;;;;;;9.25;9.00;;;;;2.62;88.41;102526.31;5002894;28;45288;-76
2022/01/20 05:06:42;;;;;;;;;12.00;11.33;;;;;2.62;88.40;102517.59;4984772;28;47643;-76
2022/01/20 05:09:08;;;;;;;;;9.75;8.75;;;;;2.61;88.57;102516.72;5002434;28;45282;-76
2022/01/20 05:11:36;;;;;;;;;13.00;13.00;;;;;2.49;87.74;102499.00;5002752;28;45217;-76
2022/01/20 05:14:01;;;;;;;;;13.00;13.00;;;;;2.59;88.56;102525.63;5002590;28;45347;-76
2022/01/20 05:16:27;;;;;;;;;14.00;11.50;;;;;2.55;88.62;102529.34;5002456;28;46131;-76
2022/01/20 05:18:52;;;;;;;;;10.50;8.50;;;;;2.38;88.26;102500.38;5002240;28;45290;-76
2022/01/20 05:21:18;;;;;;;;;12.75;12.75;;;;;2.48;88.05;102529.63;4984992;28;45644;-75
2022/01/20 05:23:43;;;;;;;;;11.75;10.25;;;;;2.46;88.40;102514.91;4998981;28;46527;-75
2022/01/20 05:26:09;;;;;;;;;14.00;14.00;;;;;2.52;87.95;102522.47;5001382;28;45378;-75
2022/01/20 05:28:35;;;;;;;;;13.25;13.25;;;;;2.44;88.23;102514.13;5009559;28;46350;-75
2022/01/20 05:31:00;;;;;;;;;15.75;13.50;;;;;2.47;88.18;102525.31;5022267;28;45393;-75
2022/01/20 05:33:26;;;;;;;;;15.75;13.75;;;;;2.46;88.35;102523.63;5022265;28;45285;-76
2022/01/20 05:35:52;;;;;;;;;17.25;14.00;;;;;2.34;87.25;102509.31;5022195;28;45279;-76
2022/01/20 05:38:17;;;;;;;;;15.00;14.25;;;;;2.33;88.30;102515.50;5021717;28;45284;-76
2022/01/20 05:40:43;;;;;;;;;12.50;11.75;;;;;2.42;88.42;102544.84;5022214;28;45289;-76
2022/01/20 05:43:08;;;;;;;;;13.75;11.75;;;;;2.32;88.36;102534.81;5021991;28;45493;-75
2022/01/20 05:45:35;;;;;;;;;13.50;12.75;;;;;2.31;87.56;102533.13;5022078;28;45295;-76
2022/01/20 05:48:10;;;;;;;;;12.25;12.25;;;;;2.32;87.61;102544.44;5018490;28;45255;-75
2022/01/20 05:50:36;;;;;;;;;10.50;10.50;;;;;2.36;87.72;102553.84;5016374;28;45396;-75
2022/01/20 05:53:04;;;;;;;;;12.75;12.25;;;;;2.21;87.78;102531.88;5003124;28;46997;-76
2022/01/20 05:55:30;;;;;;;;;14.50;12.50;;;;;2.07;87.66;102512.41;5021568;28;45379;-75
2022/01/20 05:57:55;;;;;;;;;18.50;16.25;;;;;2.17;87.82;102538.16;5021570;28;45321;-76
2022/01/20 06:00:23;;;;;;;;;13.00;12.75;;;;;2.18;87.81;102540.72;5021965;28;45328;-76
2022/01/20 06:05:49;;;;;;;;;16.50;16.50;;;;;2.17;87.80;102557.38;4921709;28;46053;-77
2022/01/20 06:08:15;;;;;;;;;15.50;15.00;;;;;2.24;88.24;102563.19;4977962;28;45359;-76
2022/01/20 06:10:40;;;;;;;;;19.50;16.75;;;;;2.22;88.91;102575.53;5001645;28;45455;-77
2022/01/20 06:13:06;;;;;;;;;11.00;9.25;;;;;2.25;88.42;102575.41;5000634;28;46140;-78
2022/01/20 06:15:32;;;;;;;;;34.00;32.25;;;;;2.18;88.62;102561.69;5005243;28;45847;-79
2022/01/20 06:17:57;;;;;;;;;14.25;12.25;;;;;2.28;88.88;102567.38;5005329;28;45173;-78
2022/01/20 06:20:23;;;;;;;;;12.25;12.25;;;;;2.28;88.61;102562.13;4989241;28;45182;-78
2022/01/20 06:22:48;;;;;;;;;13.25;13.25;;;;;2.29;88.22;102571.69;5000017;28;45298;-79
2022/01/20 06:25:14;;;;;;;;;13.50;12.00;;;;;2.22;88.21;102554.53;4978492;28;47461;-79
2022/01/20 06:27:39;;;;;;;;;13.00;12.75;;;;;2.14;87.56;102547.03;5002118;28;45440;-79
2022/01/20 06:30:06;;;;;;;;;11.25;10.50;;;;;2.26;88.62;102580.56;5001990;28;45353;-78
2022/01/20 06:32:32;;;;;;;;;10.25;8.75;;;;;2.25;88.56;102567.53;5000695;28;45426;-79
2022/01/20 06:34:59;;;;;;;;;12.75;11.75;;;;;2.23;88.69;102571.97;5000653;28;46141;-79
2022/01/20 06:37:24;;;;;;;;;11.50;8.75;;;;;2.21;88.19;102571.22;4985550;28;45884;-77
2022/01/20 06:39:49;;;;;;;;;7.50;7.50;;;;;2.15;87.61;102585.47;5021044;28;45275;-76
2022/01/20 06:42:15;;;;;;;;;11.50;11.00;;;;;2.17;88.36;102586.25;5017441;28;45318;-76
2022/01/20 06:44:40;;;;;;;;;5.75;3.00;;;;;2.11;88.42;102584.78;5001290;28;46193;-76
2022/01/20 06:47:06;;;;;;;;;9.25;8.50;;;;;2.13;88.35;102592.56;4997621;28;45394;-76
2022/01/20 06:49:31;;;;;;;;;10.75;9.25;;;;;2.15;88.06;102590.72;4998145;28;45362;-76
2022/01/20 06:51:57;;;;;;;;;9.25;9.25;;;;;2.03;87.71;102586.06;4999856;28;45330;-76
2022/01/20 06:54:23;;;;;;;;;9.75;7.50;;;;;2.04;88.27;102593.00;4981377;28;47569;-76
2022/01/20 06:56:48;;;;;;;;;9.33;9.33;;;;;2.03;88.57;102596.56;4999434;28;45452;-76
2022/01/20 06:59:16;;;;;;;;;8.25;7.25;;;;;2.08;88.34;102611.16;5000062;28;45444;-75
2022/01/20 07:01:43;;;;;;;;;11.75;10.25;;;;;2.03;88.46;102599.19;5000252;28;45425;-75
2022/01/20 07:04:13;;;;;;;;;12.00;10.75;;;;;2.07;88.39;102608.59;4999288;28;46136;-76
2022/01/20 07:06:39;;;;;;;;;11.50;9.75;;;;;2.20;88.67;102632.47;5000692;28;45357;-76
2022/01/20 07:09:04;;;;;;;;;17.00;15.25;;;;;2.22;88.78;102620.97;5000576;28;45315;-77
2022/01/20 07:11:32;;;;;;;;;6.00;6.00;;;;;2.28;88.58;102632.97;5000644;28;45279;-76
2022/01/20 07:13:58;;;;;;;;;5.50;5.50;;;;;2.30;89.10;102630.28;4983166;28;47288;-76
2022/01/20 07:16:23;;;;;;;;;12.00;7.00;;;;;2.38;89.22;102638.63;5000680;28;45266;-76
2022/01/20 07:18:50;;;;;;;;;7.33;7.33;;;;;2.43;89.52;102643.66;4997398;28;45306;-75
2022/01/20 07:21:16;;;;;;;;;10.67;7.00;;;;;2.50;89.82;102653.78;5000756;28;45342;-76
2022/01/20 07:23:41;;;;;;;;;6.67;6.67;;;;;2.60;88.50;102659.44;4982705;28;47369;-75
2022/01/20 07:26:07;;;;;;;;;7.67;4.00;;;;;2.60;89.20;102658.63;4983000;28;45212;-75
2022/01/20 07:28:32;;;;;;;;;7.25;7.00;;;;;2.63;88.61;102664.56;5000653;28;45156;-76
2022/01/20 07:30:58;;;;;;;;;7.00;4.00;;;;;2.64;89.61;102671.50;5000765;28;45205;-76
2022/01/20 07:33:24;;;;;;;;;3.67;3.00;;;;;2.62;89.40;102662.00;5000524;28;46122;-76
2022/01/20 07:35:50;;;;;;;;;5.67;5.67;;;;;2.72;89.11;102675.53;5000567;28;45300;-76
2022/01/20 07:38:15;;;;;;;;;4.67;3.33;;;;;2.73;89.06;102664.09;5000364;28;45353;-76
2022/01/20 07:40:40;;;;;;;;;9.00;4.67;;;;;2.84;88.94;102681.97;4982632;28;46919;-76
2022/01/20 07:43:06;;;;;;;;;5.00;4.33;;;;;2.85;89.19;102665.28;5000453;28;46279;-76
2022/01/20 07:45:31;;;;;;;;;6.00;6.00;;;;;2.92;88.55;102679.81;4982772;28;45743;-75
2022/01/20 07:47:57;;;;;;;;;7.00;6.67;;;;;2.93;88.81;102671.00;5000487;28;45471;-76
2022/01/20 07:50:22;;;;;;;;;5.67;5.67;;;;;2.84;88.76;102655.72;5000456;28;45399;-75
2022/01/20 07:52:47;;;;;;;;;7.33;7.33;;;;;2.97;88.33;102674.34;4982268;28;47252;-76
2022/01/20 07:55:14;;;;;;;;;9.00;9.00;;;;;3.05;88.56;102679.22;4982488;28;45997;-76
2022/01/20 07:57:40;;;;;;;;;7.67;6.33;;;;;2.97;88.62;102666.44;5000449;28;45379;-76
2022/01/20 08:00:07;;;;;;;;;7.00;6.00;;;;;3.08;87.73;102684.31;4999989;28;45580;-75
2022/01/20 08:02:33;;;;;;;;;6.00;5.67;;;;;2.99;88.29;102667.22;4982394;28;47656;-76
2022/01/20 08:04:59;;;;;;;;;9.33;7.67;;;;;3.09;87.87;102686.88;4999972;28;45336;-75
2022/01/20 08:07:25;;;;;;;;;10.00;10.00;;;;;3.10;87.68;102683.31;4982302;28;45255;-76
2022/01/20 08:09:56;;;;;;;;;12.33;10.67;;;;;3.05;88.03;102680.03;4999866;28;45232;-76
2022/01/20 08:12:22;;;;;;;;;9.33;9.33;;;;;3.09;87.74;102676.34;5000017;28;45289;-77
2022/01/20 08:14:48;;;;;;;;;14.00;11.67;;;;;3.07;88.41;102666.81;4999616;28;45311;-76
2022/01/20 08:17:13;;;;;;;;;9.00;9.00;;;;;3.20;88.22;102690.72;5000054;28;45346;-76
2022/01/20 08:19:38;;;;;;;;;11.67;10.67;;;;;3.25;87.92;102683.44;4998570;28;46051;-76
2022/01/20 08:22:04;;;;;;;;;8.67;7.00;;;;;3.38;88.45;102695.03;4999677;28;46486;-76
2022/01/20 08:24:29;;;;;;;;;9.00;9.00;;;;;3.46;88.08;102692.03;4999822;28;45249;-75
2022/01/20 08:26:55;;;;;;;;;10.00;10.00;;;;;3.50;88.31;102684.84;4982197;28;45311;-76
2022/01/20 08:29:20;;;;;;;;;11.67;11.67;;;;;3.58;88.68;102671.25;4981915;28;47315;-76
2022/01/20 08:31:45;;;;;;;;;15.00;11.00;;;;;3.63;88.18;102674.53;4981989;28;47086;-76
2022/01/20 08:34:11;;;;;;;;;13.00;10.00;;;;;3.75;87.81;102676.50;4999808;28;45165;-76
2022/01/20 08:36:36;;;;;;;;;9.33;8.00;;;;;3.79;88.35;102669.28;4999634;28;45177;-76
2022/01/20 08:39:02;;;;;;;;;14.67;12.67;;;;;3.90;88.30;102684.50;4999409;28;45338;-76
2022/01/20 08:41:28;;;;;;;;;13.00;10.67;;;;;3.87;87.74;102671.50;4999519;28;45293;-76
2022/01/20 08:43:53;;;;;;;;;14.33;14.00;;;;;4.03;88.60;102698.72;4999528;28;45326;-76
2022/01/20 08:46:20;;;;;;;;;13.00;11.00;;;;;4.11;87.93;102697.44;4999573;28;45770;-76
2022/01/20 08:48:46;;;;;;;;;13.00;13.00;;;;;4.15;87.61;102712.13;4981713;28;47058;-75
2022/01/20 08:51:12;;;;;;;;;14.00;13.67;;;;;4.09;88.05;102694.03;4999114;28;46189;-76
2022/01/20 08:53:37;;;;;;;;;13.33;13.33;;;;;4.18;87.68;102704.06;4999328;28;45344;-76
2022/01/20 08:56:03;;;;;;;;;13.00;12.33;;;;;4.23;88.18;102706.44;4981829;28;45255;-76
2022/01/20 08:58:28;;;;;;;;;11.67;9.33;;;;;4.31;87.85;102704.22;4999377;28;46394;-76
2022/01/20 09:00:54;;;;;;;;;14.67;14.67;;;;;4.36;87.88;102696.94;4999386;28;45239;-76
2022/01/20 09:03:22;;;;;;;;;16.00;14.67;;;;;4.53;88.06;102710.97;4981508;28;45358;-76
2022/01/20 09:05:48;;;;;;;;;15.33;14.00;;;;;4.59;87.85;102712.41;4981791;28;45389;-75
2022/01/20 09:08:15;;;;;;;;;16.00;14.67;;;;;4.67;87.92;102710.19;4981025;28;46972;-76
2022/01/20 09:10:43;;;;;;;;;16.00;15.00;;;;;4.67;87.70;102700.50;4998931;28;46029;-76
2022/01/20 09:15:56;;;;;;;;;15.67;15.67;;;;;4.75;87.13;102702.69;4999151;28;45381;-75
2022/01/20 09:18:24;;;;;;;;;19.00;18.00;;;;;4.71;87.87;102693.28;4980963;28;46277;-76
2022/01/20 09:20:49;;;;;;;;;10.67;10.67;;;;;4.83;87.61;102712.81;4981149;28;46530;-75
2022/01/20 09:23:14;;;;;;;;;15.67;14.67;;;;;4.80;87.76;102702.44;4981253;28;45397;-76
2022/01/20 09:25:41;;;;;;;;;19.00;13.33;;;;;4.86;87.55;102710.00;4998780;28;45262;-75
2022/01/20 09:28:07;;;;;;;;;17.33;13.33;;;;;4.84;87.96;102713.63;4983462;28;46176;-76
2022/01/20 09:30:35;;;;;;;;;16.00;14.00;;;;;5.08;87.99;102734.25;4984326;28;46145;-76
2022/01/20 09:33:25;;;;;;;;;14.33;14.33;;;;;5.06;87.57;102726.44;5002541;28;45286;-76
2022/01/20 09:35:50;;;;;;;;;18.67;17.67;;;;;5.11;87.31;102727.03;5002458;28;45337;-76
2022/01/20 09:38:16;;;;;;;;;18.00;15.00;;;;;5.30;87.42;102744.41;5002025;28;45293;-77
2022/01/20 09:40:42;;;;;;;;;12.33;12.33;;;;;5.37;87.45;102753.66;5002070;28;45382;-76
2022/01/20 09:43:11;;;;;;;;;12.00;11.33;;;;;5.49;87.64;102741.53;4984395;28;45275;-76
2022/01/20 09:45:38;;;;;;;;;10.67;9.67;;;;;5.57;87.16;102751.63;5002291;28;45409;-76
2022/01/20 09:48:03;;;;;;;;;11.33;9.67;;;;;5.59;86.80;102736.53;5002057;28;45253;-76
2022/01/20 09:50:29;;;;;;;;;14.00;14.00;;;;;5.71;86.93;102740.25;5002077;28;46480;-76
2022/01/20 09:52:59;;;;;;;;;15.33;15.00;;;;;5.84;87.38;102744.78;5001966;28;45447;-75
2022/01/20 09:55:24;;;;;;;;;12.00;10.00;;;;;5.89;87.55;102732.13;4984325;28;45301;-76
2022/01/20 09:57:49;;;;;;;;;13.33;12.33;;;;;5.95;86.81;102726.47;5001867;28;45295;-76
2022/01/20 10:00:16;;;;;;;;;10.67;9.33;;;;;6.07;86.70;102740.75;5001786;28;46275;-76
2022/01/20 10:02:53;;;;;;;;;11.33;11.33;;;;;6.14;86.68;102749.97;5001985;28;45362;-76
2022/01/20 10:05:32;;;;;;;;;10.00;9.33;;;;;6.13;85.96;102742.16;5001998;28;45346;-76
2022/01/20 10:08:21;;;;;;;;;10.67;10.67;;;;;5.99;86.04;102711.31;4983987;28;46319;-76
2022/01/20 10:11:00;;;;;;;;;12.33;11.67;;;;;6.15;85.39;102756.13;5001655;28;45312;-77
2022/01/20 10:13:29;;;;;;;;;11.67;11.00;;;;;6.13;85.96;102744.78;5001801;28;45379;-76
2022/01/20 10:16:01;;;;;;;;;12.67;11.67;;;;;6.18;85.68;102751.50;5001921;28;45259;-76
2022/01/20 10:18:28;;;;;;;;;12.00;11.67;;;;;6.25;85.80;102766.94;5001355;28;45449;-76
2022/01/20 10:21:02;;;;;;;;;13.00;12.00;;;;;6.28;85.81;102758.84;4983892;28;48506;-76
2022/01/20 10:23:37;;;;;;;;;12.00;12.00;;;;;6.26;86.16;102755.47;5001417;28;45319;-76
2022/01/20 10:26:12;;;;;;;;;15.33;14.33;;;;;6.30;85.46;102765.75;5001599;28;45292;-76
2022/01/20 10:29:07;;;;;;;;;13.00;13.00;;;;;6.37;85.92;102775.94;5001233;28;45432;-77
2022/01/20 10:31:38;;;;;;;;;10.00;10.00;;;;;6.36;85.22;102785.63;5001369;28;45372;-76
2022/01/20 10:34:06;;;;;;;;;10.33;10.00;;;;;6.38;85.73;102790.81;4983721;28;45406;-77
2022/01/20 10:36:38;;;;;;;;;12.33;12.33;;;;;6.38;85.51;102789.00;5001258;28;45231;-76
2022/01/20 10:39:04;;;;;;;;;15.33;13.67;;;;;6.31;85.38;102778.00;4993645;28;45347;-76
2022/01/20 10:41:38;;;;;;;;;13.00;11.67;;;;;6.38;85.38;102791.66;5001226;28;45368;-76
2022/01/20 10:44:16;;;;;;;;;15.67;13.67;;;;;6.37;85.20;102789.13;5001445;28;45266;-76
2022/01/20 10:46:42;;;;;;;;;12.00;10.33;;;;;6.24;85.34;102776.69;4983606;28;45421;-76
2022/01/20 10:49:08;;;;;;;;;13.67;11.33;;;;;6.22;84.55;102778.56;5001128;28;45285;-76
2022/01/20 10:51:33;;;;;;;;;12.33;11.67;;;;;6.23;85.14;102793.47;4983041;28;48033;-76
2022/01/20 10:54:07;;;;;;;;;12.33;10.67;;;;;6.21;84.88;102791.84;5001078;28;45210;-76
2022/01/20 10:56:49;;;;;;;;;12.67;11.00;;;;;6.17;85.29;102797.31;4983660;28;45215;-76
2022/01/20 10:59:15;;;;;;;;;13.67;13.00;;;;;6.14;85.20;102786.13;4983192;28;47369;-76
2022/01/20 11:01:40;;;;;;;;;10.33;10.33;;;;;6.24;85.29;102789.88;4983222;28;46242;-76
2022/01/20 11:04:07;;;;;;;;;12.67;11.33;;;;;6.27;85.28;102789.69;5001070;28;45303;-76
2022/01/20 11:06:36;;;;;;;;;8.33;8.33;;;;;6.23;85.13;102780.28;5001029;28;45796;-76
2022/01/20 11:09:04;;;;;;;;;9.00;7.33;;;;;6.30;84.53;102789.50;5000705;28;45239;-76
2022/01/20 11:11:29;;;;;;;;;8.33;8.33;;;;;6.25;84.60;102785.44;5000770;28;46187;-76
2022/01/20 11:13:54;;;;;;;;;14.00;11.00;;;;;6.35;85.05;102785.72;5000888;28;45358;-76
2022/01/20 11:16:21;;;;;;;;;11.00;8.67;;;;;6.41;84.80;102783.53;5000920;28;45292;-76
2022/01/20 11:18:47;;;;;;;;;10.67;9.00;;;;;6.45;85.02;102768.34;5000579;28;45230;-76
2022/01/20 11:21:22;;;;;;;;;9.00;7.00;;;;;6.53;84.17;102762.59;4982682;28;47109;-77
2022/01/20 11:23:47;;;;;;;;;8.67;8.00;;;;;6.61;84.35;102770.88;5000747;28;45223;-76
2022/01/20 11:26:13;;;;;;;;;7.67;6.67;;;;;6.64;84.11;102759.25;5000691;28;45865;-76
2022/01/20 11:28:38;;;;;;;;;9.00;9.00;;;;;6.75;84.36;102775.28;4982586;28;46373;-76
2022/01/20 11:31:06;;;;;;;;;12.67;7.67;;;;;6.80;84.17;102772.34;5000697;28;45243;-76
2022/01/20 11:33:36;;;;;;;;;12.67;11.00;;;;;6.82;83.93;102773.94;5000521;28;45463;-76
2022/01/20 11:36:04;;;;;;;;;7.00;7.00;;;;;6.82;83.85;102766.00;4982750;28;45287;-75
2022/01/20 11:38:46;;;;;;;;;12.67;11.00;;;;;6.84;83.36;102767.69;4982473;28;45269;-75
2022/01/20 11:41:14;;;;;;;;;8.33;7.00;;;;;6.87;83.56;102764.84;5000416;28;45500;-76
2022/01/20 11:43:49;;;;;;;;;12.33;9.67;;;;;6.94;83.56;102769.63;4982701;28;45338;-76
2022/01/20 11:46:20;;;;;;;;;7.00;6.33;;;;;7.01;83.33;102771.88;5000503;28;45227;-76
2022/01/20 11:49:03;;;;;;;;;10.33;8.00;;;;;6.98;82.95;102759.72;5000230;28;45287;-76
2022/01/20 11:51:50;;;;;;;;;8.67;7.67;;;;;7.04;82.73;102771.69;4999516;28;45358;-76
2022/01/20 11:54:27;;;;;;;;;6.00;6.00;;;;;7.04;82.35;102774.34;5000129;28;45247;-76
2022/01/20 11:57:23;;;;;;;;;6.00;5.67;;;;;6.95;81.83;102767.84;5000347;28;45354;-76
2022/01/20 11:59:56;;;;;;;;;6.67;6.00;;;;;6.92;81.99;102763.59;4989208;28;45266;-76
2022/01/20 12:02:35;;;;;;;;;6.00;6.00;;;;;6.98;82.43;102777.38;5000164;28;45253;-76
2022/01/20 12:05:26;;;;;;;;;7.67;7.33;;;;;7.02;82.04;102782.38;4982410;28;45817;-76
2022/01/20 12:08:04;;;;;;;;;8.00;8.00;;;;;7.03;81.30;102785.84;4999833;28;45302;-76
2022/01/20 12:10:29;;;;;;;;;9.33;7.00;;;;;7.06;81.63;102781.22;4999936;28;45397;-76
2022/01/20 12:13:08;;;;;;;;;10.33;6.67;;;;;7.21;81.92;102786.44;4999889;28;45862;-76
2022/01/20 12:15:33;;;;;;;;;8.00;6.33;;;;;7.19;81.14;102777.78;5000091;28;45325;-76
2022/01/20 12:17:58;;;;;;;;;7.00;7.00;;;;;7.19;81.11;102773.31;4999702;28;45359;-76
2022/01/20 12:20:25;;;;;;;;;7.33;7.00;;;;;7.32;81.18;102791.88;4999878;28;45405;-76
2022/01/20 12:22:52;;;;;;;;;5.00;5.00;;;;;7.36;80.95;102794.31;4981810;28;47199;-76
2022/01/20 12:25:26;;;;;;;;;4.67;4.67;;;;;7.35;80.73;102789.97;4999741;28;45213;-76
2022/01/20 12:28:11;;;;;;;;;5.00;4.67;;;;;7.42;80.69;102802.69;5000066;28;45828;-76
2022/01/20 12:30:47;;;;;;;;;7.33;6.00;;;;;7.49;80.44;102803.13;4999512;28;45298;-75
2022/01/20 12:33:15;;;;;;;;;5.00;4.00;;;;;7.49;80.31;102803.13;4981921;28;47076;-76